Red Rock, Canada
Current Conditions -  °F | °C
As of 12:00 PM on Saturday 25 Oct 2014 (Local Time) from CYXS Reporting Station
Overcast Overcast  
Wind Chill: 32°   Ceiling: 6000
Heat Index: 39°   Visibility: 9mi
Dew Point: 32°   Wind: 12mph
Humidity: 75%   Direction: 30°NNE
Pressure: 29.57"   Gusts: NA
Location:  53.67°N, 122.65°W
Report Text: CYXS 251900Z AUTO 03010KT 9SM OVC060 04/00 A2957 RMK SLP043
Loading
Personal Weather Stations






























Interactive Weather Map
Tropical Storm Tracking
New forecast layout! Learn more

10-Day Weather Forecast

Advertisements
Track Severe Weather on mobile